sensor_id;sensor_type;location;lat;lon;timestamp;pressure;altitude;pressure_sealevel;temperature;humidity
58668;BME280;59852;43.086;25.634;2023-05-01T00:01:14;98766.78;;;11.74;76.79
58668;BME280;59852;43.086;25.634;2023-05-01T00:03:40;98776.06;;;11.67;76.37
58668;BME280;59852;43.086;25.634;2023-05-01T00:06:05;98776.28;;;11.64;75.51
58668;BME280;59852;43.086;25.634;2023-05-01T00:08:31;98770.66;;;11.57;75.69
58668;BME280;59852;43.086;25.634;2023-05-01T00:11:01;98773.69;;;11.75;75.71
58668;BME280;59852;43.086;25.634;2023-05-01T00:13:26;98784.72;;;11.56;76.48
58668;BME280;59852;43.086;25.634;2023-05-01T00:15:51;98793.53;;;11.55;76.58
58668;BME280;59852;43.086;25.634;2023-05-01T00:18:18;98791.25;;;11.51;76.64
58668;BME280;59852;43.086;25.634;2023-05-01T00:20:43;98791.19;;;11.39;77.07
58668;BME280;59852;43.086;25.634;2023-05-01T00:23:09;98790.47;;;11.37;75.37
58668;BME280;59852;43.086;25.634;2023-05-01T00:25:35;98792.00;;;11.29;75.66
58668;BME280;59852;43.086;25.634;2023-05-01T00:28:01;98789.09;;;11.20;76.58
58668;BME280;59852;43.086;25.634;2023-05-01T00:30:27;98794.44;;;11.19;76.43
58668;BME280;59852;43.086;25.634;2023-05-01T00:32:52;98793.72;;;11.17;76.58
58668;BME280;59852;43.086;25.634;2023-05-01T00:35:17;98795.91;;;11.23;77.36
58668;BME280;59852;43.086;25.634;2023-05-01T00:37:43;98802.47;;;11.29;77.16
58668;BME280;59852;43.086;25.634;2023-05-01T00:40:08;98800.63;;;11.18;77.68
58668;BME280;59852;43.086;25.634;2023-05-01T00:42:34;98793.78;;;11.28;77.86
58668;BME280;59852;43.086;25.634;2023-05-01T00:45:00;98796.63;;;11.25;77.92
58668;BME280;59852;43.086;25.634;2023-05-01T00:47:25;98800.44;;;11.21;77.54
58668;BME280;59852;43.086;25.634;2023-05-01T00:49:51;98804.03;;;11.31;77.38
58668;BME280;59852;43.086;25.634;2023-05-01T00:52:16;98806.38;;;11.23;77.88
58668;BME280;59852;43.086;25.634;2023-05-01T00:54:42;98805.22;;;10.90;78.77
58668;BME280;59852;43.086;25.634;2023-05-01T00:57:07;98805.75;;;11.19;79.31
58668;BME280;59852;43.086;25.634;2023-05-01T00:59:33;98809.69;;;10.77;81.03
58668;BME280;59852;43.086;25.634;2023-05-01T01:01:58;98810.69;;;10.87;81.00
58668;BME280;59852;43.086;25.634;2023-05-01T01:04:24;98811.56;;;10.75;82.71
58668;BME280;59852;43.086;25.634;2023-05-01T01:06:57;98813.16;;;10.65;82.74
58668;BME280;59852;43.086;25.634;2023-05-01T01:09:50;98810.84;;;10.60;82.64
58668;BME280;59852;43.086;25.634;2023-05-01T01:12:30;98822.06;;;10.50;83.34
58668;BME280;59852;43.086;25.634;2023-05-01T01:17:47;98832.50;;;10.75;81.81
58668;BME280;59852;43.086;25.634;2023-05-01T01:36:05;98841.88;;;10.28;83.39
58668;BME280;59852;43.086;25.634;2023-05-01T01:38:36;98843.06;;;9.97;85.00
58668;BME280;59852;43.086;25.634;2023-05-01T01:41:08;98848.31;;;9.97;84.98
58668;BME280;59852;43.086;25.634;2023-05-01T01:43:37;98841.63;;;10.19;84.31
58668;BME280;59852;43.086;25.634;2023-05-01T01:46:04;98847.09;;;10.28;83.34
58668;BME280;59852;43.086;25.634;2023-05-01T01:48:32;98843.88;;;10.25;83.01
58668;BME280;59852;43.086;25.634;2023-05-01T01:50:58;98841.41;;;10.09;82.92
58668;BME280;59852;43.086;25.634;2023-05-01T01:53:25;98850.41;;;10.05;83.45
58668;BME280;59852;43.086;25.634;2023-05-01T01:55:52;98849.53;;;9.92;83.37
58668;BME280;59852;43.086;25.634;2023-05-01T01:58:18;98855.63;;;10.18;83.40
58668;BME280;59852;43.086;25.634;2023-05-01T02:00:45;98860.69;;;10.33;82.18
58668;BME280;59852;43.086;25.634;2023-05-01T02:03:11;98857.88;;;10.24;82.91
58668;BME280;59852;43.086;25.634;2023-05-01T02:05:38;98854.47;;;10.09;83.73
58668;BME280;59852;43.086;25.634;2023-05-01T02:08:04;98864.72;;;10.12;83.44
58668;BME280;59852;43.086;25.634;2023-05-01T02:10:31;98863.00;;;10.25;82.31
58668;BME280;59852;43.086;25.634;2023-05-01T02:12:57;98869.50;;;10.32;82.08
58668;BME280;59852;43.086;25.634;2023-05-01T02:15:23;98862.94;;;10.13;83.60
58668;BME280;59852;43.086;25.634;2023-05-01T02:17:50;98869.22;;;10.10;83.44
58668;BME280;59852;43.086;25.634;2023-05-01T02:20:16;98872.16;;;10.05;83.71
58668;BME280;59852;43.086;25.634;2023-05-01T02:22:42;98870.94;;;10.37;83.21
58668;BME280;59852;43.086;25.634;2023-05-01T02:25:10;98871.22;;;10.32;83.71
58668;BME280;59852;43.086;25.634;2023-05-01T02:27:55;98872.94;;;10.33;82.89
58668;BME280;59852;43.086;25.634;2023-05-01T02:30:21;98875.94;;;10.14;84.10
58668;BME280;59852;43.086;25.634;2023-05-01T02:32:47;98886.06;;;10.06;84.57
58668;BME280;59852;43.086;25.634;2023-05-01T02:35:12;98875.88;;;10.01;84.98
58668;BME280;59852;43.086;25.634;2023-05-01T02:37:37;98874.00;;;9.91;84.96
58668;BME280;59852;43.086;25.634;2023-05-01T02:40:03;98874.88;;;10.04;85.01
58668;BME280;59852;43.086;25.634;2023-05-01T02:42:29;98876.84;;;10.00;84.90
58668;BME280;59852;43.086;25.634;2023-05-01T02:44:57;98875.59;;;10.06;84.52
58668;BME280;59852;43.086;25.634;2023-05-01T02:47:24;98879.25;;;10.03;84.41
58668;BME280;59852;43.086;25.634;2023-05-01T02:49:51;98876.00;;;10.00;84.73
58668;BME280;59852;43.086;25.634;2023-05-01T02:52:18;98879.88;;;10.07;84.23
58668;BME280;59852;43.086;25.634;2023-05-01T02:54:43;98882.72;;;10.04;84.63
58668;BME280;59852;43.086;25.634;2023-05-01T02:57:09;98888.22;;;9.99;84.38
58668;BME280;59852;43.086;25.634;2023-05-01T02:59:35;98887.78;;;9.93;84.99
58668;BME280;59852;43.086;25.634;2023-05-01T03:02:00;98890.41;;;9.93;85.26
58668;BME280;59852;43.086;25.634;2023-05-01T03:04:26;98899.59;;;9.86;84.84
58668;BME280;59852;43.086;25.634;2023-05-01T03:06:51;98902.03;;;10.01;84.30
58668;BME280;59852;43.086;25.634;2023-05-01T03:09:18;98903.19;;;10.10;84.22
58668;BME280;59852;43.086;25.634;2023-05-01T03:11:43;98900.56;;;10.10;83.37
58668;BME280;59852;43.086;25.634;2023-05-01T03:14:08;98902.84;;;10.02;83.88
58668;BME280;59852;43.086;25.634;2023-05-01T03:16:35;98900.25;;;10.02;84.33
58668;BME280;59852;43.086;25.634;2023-05-01T03:19:00;98898.56;;;10.01;84.52
58668;BME280;59852;43.086;25.634;2023-05-01T03:21:25;98900.81;;;9.80;85.37
58668;BME280;59852;43.086;25.634;2023-05-01T03:23:51;98904.63;;;9.89;84.78
58668;BME280;59852;43.086;25.634;2023-05-01T03:26:16;98904.56;;;10.16;82.96
58668;BME280;59852;43.086;25.634;2023-05-01T03:28:41;98908.00;;;10.16;82.92
58668;BME280;59852;43.086;25.634;2023-05-01T03:31:07;98911.84;;;9.98;84.24
58668;BME280;59852;43.086;25.634;2023-05-01T03:33:32;98912.69;;;9.98;84.92
58668;BME280;59852;43.086;25.634;2023-05-01T03:35:58;98915.19;;;10.00;85.05
58668;BME280;59852;43.086;25.634;2023-05-01T03:38:24;98917.53;;;10.04;83.95
58668;BME280;59852;43.086;25.634;2023-05-01T03:40:51;98924.41;;;10.05;84.29
58668;BME280;59852;43.086;25.634;2023-05-01T03:43:16;98913.50;;;9.86;84.40
58668;BME280;59852;43.086;25.634;2023-05-01T03:45:41;98920.31;;;10.01;83.56
58668;BME280;59852;43.086;25.634;2023-05-01T03:48:07;98925.84;;;9.97;84.48
58668;BME280;59852;43.086;25.634;2023-05-01T03:50:32;98925.72;;;9.86;84.79
58668;BME280;59852;43.086;25.634;2023-05-01T03:52:57;98930.84;;;9.87;84.96
58668;BME280;59852;43.086;25.634;2023-05-01T03:55:23;98932.63;;;9.87;85.20
58668;BME280;59852;43.086;25.634;2023-05-01T03:57:48;98928.97;;;9.89;85.16
58668;BME280;59852;43.086;25.634;2023-05-01T04:00:13;98930.38;;;9.68;86.09
58668;BME280;59852;43.086;25.634;2023-05-01T04:02:39;98943.53;;;9.66;86.31
58668;BME280;59852;43.086;25.634;2023-05-01T04:05:04;98944.41;;;9.80;85.55
58668;BME280;59852;43.086;25.634;2023-05-01T04:07:30;98946.03;;;9.68;85.08
58668;BME280;59852;43.086;25.634;2023-05-01T04:09:55;98952.97;;;9.82;85.05
58668;BME280;59852;43.086;25.634;2023-05-01T04:12:21;98952.22;;;10.06;83.60
58668;BME280;59852;43.086;25.634;2023-05-01T04:14:46;98957.50;;;9.92;84.25
58668;BME280;59852;43.086;25.634;2023-05-01T04:17:12;98961.63;;;9.82;84.45
58668;BME280;59852;43.086;25.634;2023-05-01T04:19:37;98960.56;;;9.99;83.96
58668;BME280;59852;43.086;25.634;2023-05-01T04:22:02;98963.16;;;9.99;85.21
58668;BME280;59852;43.086;25.634;2023-05-01T04:24:29;98961.09;;;10.04;84.47
58668;BME280;59852;43.086;25.634;2023-05-01T04:26:54;98969.34;;;10.11;83.98
58668;BME280;59852;43.086;25.634;2023-05-01T04:29:20;98972.56;;;10.28;83.46
58668;BME280;59852;43.086;25.634;2023-05-01T04:31:45;98978.25;;;10.08;84.28
58668;BME280;59852;43.086;25.634;2023-05-01T04:34:11;98976.59;;;10.20;82.89
58668;BME280;59852;43.086;25.634;2023-05-01T04:36:36;98975.53;;;10.10;81.67
58668;BME280;59852;43.086;25.634;2023-05-01T04:39:01;98979.31;;;9.78;82.50
58668;BME280;59852;43.086;25.634;2023-05-01T04:41:27;98983.16;;;10.13;82.00
58668;BME280;59852;43.086;25.634;2023-05-01T04:43:53;98989.94;;;10.29;80.57
58668;BME280;59852;43.086;25.634;2023-05-01T04:46:18;99000.13;;;9.93;80.57
58668;BME280;59852;43.086;25.634;2023-05-01T04:48:44;98999.34;;;9.78;81.61
58668;BME280;59852;43.086;25.634;2023-05-01T04:51:09;99002.31;;;9.86;81.68
58668;BME280;59852;43.086;25.634;2023-05-01T04:53:34;99001.88;;;9.80;82.79
58668;BME280;59852;43.086;25.634;2023-05-01T04:56:00;99003.19;;;9.99;83.02
58668;BME280;59852;43.086;25.634;2023-05-01T04:58:26;98997.72;;;9.90;82.71
58668;BME280;59852;43.086;25.634;2023-05-01T05:00:51;99005.22;;;9.82;84.55
58668;BME280;59852;43.086;25.634;2023-05-01T05:03:16;99001.66;;;10.10;82.26
58668;BME280;59852;43.086;25.634;2023-05-01T05:05:43;99013.41;;;10.17;81.82
58668;BME280;59852;43.086;25.634;2023-05-01T05:08:09;99008.06;;;10.18;81.34
58668;BME280;59852;43.086;25.634;2023-05-01T05:10:35;99012.34;;;10.46;80.68
58668;BME280;59852;43.086;25.634;2023-05-01T05:13:00;99022.09;;;10.70;79.23
58668;BME280;59852;43.086;25.634;2023-05-01T05:15:25;99020.75;;;10.64;80.05
58668;BME280;59852;43.086;25.634;2023-05-01T05:17:51;99033.00;;;10.76;80.32
58668;BME280;59852;43.086;25.634;2023-05-01T05:20:16;99032.66;;;10.55;81.66
58668;BME280;59852;43.086;25.634;2023-05-01T05:22:42;99035.72;;;10.75;82.46
58668;BME280;59852;43.086;25.634;2023-05-01T05:25:07;99039.19;;;11.01;81.85
58668;BME280;59852;43.086;25.634;2023-05-01T05:27:33;99042.28;;;10.42;83.75
58668;BME280;59852;43.086;25.634;2023-05-01T05:30:04;99046.31;;;10.99;81.18
58668;BME280;59852;43.086;25.634;2023-05-01T05:32:36;99050.38;;;10.90;81.10
58668;BME280;59852;43.086;25.634;2023-05-01T05:35:01;99051.97;;;11.18;80.64
58668;BME280;59852;43.086;25.634;2023-05-01T05:37:27;99061.00;;;11.01;81.60
58668;BME280;59852;43.086;25.634;2023-05-01T05:39:52;99051.97;;;11.05;81.51
58668;BME280;59852;43.086;25.634;2023-05-01T05:42:18;99058.34;;;11.89;78.17
58668;BME280;59852;43.086;25.634;2023-05-01T05:44:43;99064.09;;;12.30;76.33
58668;BME280;59852;43.086;25.634;2023-05-01T05:47:08;99056.66;;;12.00;75.03
58668;BME280;59852;43.086;25.634;2023-05-01T05:49:34;99055.59;;;12.27;74.64
58668;BME280;59852;43.086;25.634;2023-05-01T05:51:59;99061.09;;;12.35;73.76
58668;BME280;59852;43.086;25.634;2023-05-01T05:54:24;99065.34;;;12.25;73.35
58668;BME280;59852;43.086;25.634;2023-05-01T05:56:50;99071.53;;;11.51;75.58
58668;BME280;59852;43.086;25.634;2023-05-01T05:59:15;99070.66;;;11.63;74.07
58668;BME280;59852;43.086;25.634;2023-05-01T06:01:41;99074.06;;;11.27;76.90
58668;BME280;59852;43.086;25.634;2023-05-01T06:04:06;99075.19;;;11.61;75.69
58668;BME280;59852;43.086;25.634;2023-05-01T06:06:32;99082.16;;;11.86;75.47
58668;BME280;59852;43.086;25.634;2023-05-01T06:08:58;99077.88;;;12.21;74.96
58668;BME280;59852;43.086;25.634;2023-05-01T06:11:24;99083.88;;;12.34;75.26
58668;BME280;59852;43.086;25.634;2023-05-01T06:13:50;99083.38;;;12.53;74.80
58668;BME280;59852;43.086;25.634;2023-05-01T06:16:15;99089.84;;;12.60;74.32
58668;BME280;59852;43.086;25.634;2023-05-01T06:18:40;99090.19;;;13.02;74.21
58668;BME280;59852;43.086;25.634;2023-05-01T06:21:06;99087.47;;;13.15;75.52
58668;BME280;59852;43.086;25.634;2023-05-01T06:23:31;99088.25;;;13.28;73.57
58668;BME280;59852;43.086;25.634;2023-05-01T06:25:58;99087.88;;;13.55;72.17
58668;BME280;59852;43.086;25.634;2023-05-01T06:28:23;99085.88;;;13.70;71.42
58668;BME280;59852;43.086;25.634;2023-05-01T06:30:48;99083.34;;;13.80;71.80
58668;BME280;59852;43.086;25.634;2023-05-01T06:33:14;99088.09;;;13.86;71.15
58668;BME280;59852;43.086;25.634;2023-05-01T06:35:39;99088.69;;;14.00;70.80
58668;BME280;59852;43.086;25.634;2023-05-01T06:38:05;99089.16;;;14.05;68.90
58668;BME280;59852;43.086;25.634;2023-05-01T06:40:30;99091.56;;;14.09;69.06
58668;BME280;59852;43.086;25.634;2023-05-01T06:42:58;99091.66;;;14.18;67.40
58668;BME280;59852;43.086;25.634;2023-05-01T06:45:24;99091.16;;;14.13;66.62
58668;BME280;59852;43.086;25.634;2023-05-01T06:47:49;99096.84;;;13.64;68.56
58668;BME280;59852;43.086;25.634;2023-05-01T06:50:14;99092.88;;;14.03;69.44
58668;BME280;59852;43.086;25.634;2023-05-01T06:52:40;99096.03;;;14.29;68.12
58668;BME280;59852;43.086;25.634;2023-05-01T06:55:05;99099.22;;;14.44;68.15
58668;BME280;59852;43.086;25.634;2023-05-01T06:57:31;99100.09;;;14.33;68.36
58668;BME280;59852;43.086;25.634;2023-05-01T06:59:56;99101.03;;;14.32;67.37
58668;BME280;59852;43.086;25.634;2023-05-01T07:02:22;99100.06;;;14.55;68.23
58668;BME280;59852;43.086;25.634;2023-05-01T07:04:47;99107.97;;;14.55;67.14
58668;BME280;59852;43.086;25.634;2023-05-01T07:07:12;99113.63;;;14.72;67.25
58668;BME280;59852;43.086;25.634;2023-05-01T07:09:39;99104.25;;;14.79;65.57
58668;BME280;59852;43.086;25.634;2023-05-01T07:12:04;99111.19;;;15.01;65.26
58668;BME280;59852;43.086;25.634;2023-05-01T07:14:30;99101.81;;;15.08;65.36
58668;BME280;59852;43.086;25.634;2023-05-01T07:16:56;99112.84;;;15.23;65.05
58668;BME280;59852;43.086;25.634;2023-05-01T07:19:21;99104.59;;;15.27;62.73
58668;BME280;59852;43.086;25.634;2023-05-01T07:21:46;99117.03;;;15.46;63.84
58668;BME280;59852;43.086;25.634;2023-05-01T07:24:12;99107.59;;;15.23;65.08
58668;BME280;59852;43.086;25.634;2023-05-01T07:26:37;99112.75;;;15.24;64.56
58668;BME280;59852;43.086;25.634;2023-05-01T07:29:03;99114.34;;;15.36;64.79
58668;BME280;59852;43.086;25.634;2023-05-01T07:31:28;99114.94;;;15.49;63.54
58668;BME280;59852;43.086;25.634;2023-05-01T07:33:54;99119.09;;;15.63;64.89
58668;BME280;59852;43.086;25.634;2023-05-01T07:36:19;99118.47;;;15.90;64.47
58668;BME280;59852;43.086;25.634;2023-05-01T07:38:46;99124.66;;;16.10;63.09
58668;BME280;59852;43.086;25.634;2023-05-01T07:41:11;99119.97;;;16.14;62.05
58668;BME280;59852;43.086;25.634;2023-05-01T07:43:37;99131.78;;;16.29;62.22
58668;BME280;59852;43.086;25.634;2023-05-01T07:46:02;99129.78;;;16.12;62.27
58668;BME280;59852;43.086;25.634;2023-05-01T07:48:27;99131.50;;;15.82;63.45
58668;BME280;59852;43.086;25.634;2023-05-01T07:50:53;99133.78;;;15.96;62.97
58668;BME280;59852;43.086;25.634;2023-05-01T07:53:19;99133.16;;;16.14;63.52
58668;BME280;59852;43.086;25.634;2023-05-01T07:55:46;99140.00;;;16.35;62.96
58668;BME280;59852;43.086;25.634;2023-05-01T07:58:11;99134.59;;;16.47;62.39
58668;BME280;59852;43.086;25.634;2023-05-01T08:00:37;99124.44;;;16.61;61.05
58668;BME280;59852;43.086;25.634;2023-05-01T08:03:02;99122.53;;;16.63;61.83
58668;BME280;59852;43.086;25.634;2023-05-01T08:05:27;99130.06;;;16.87;61.71
58668;BME280;59852;43.086;25.634;2023-05-01T08:07:53;99128.69;;;16.83;59.19
58668;BME280;59852;43.086;25.634;2023-05-01T08:10:18;99125.59;;;16.78;59.13
58668;BME280;59852;43.086;25.634;2023-05-01T08:12:43;99134.94;;;17.02;59.72
58668;BME280;59852;43.086;25.634;2023-05-01T08:15:09;99137.97;;;17.16;58.78
58668;BME280;59852;43.086;25.634;2023-05-01T08:17:35;99133.38;;;17.09;59.41
58668;BME280;59852;43.086;25.634;2023-05-01T08:20:00;99133.28;;;16.72;58.15
58668;BME280;59852;43.086;25.634;2023-05-01T08:22:26;99123.06;;;16.57;59.59
58668;BME280;59852;43.086;25.634;2023-05-01T08:24:51;99131.88;;;16.77;59.15
58668;BME280;59852;43.086;25.634;2023-05-01T08:27:17;99131.44;;;17.01;56.45
58668;BME280;59852;43.086;25.634;2023-05-01T08:29:42;99139.59;;;17.27;56.21
58668;BME280;59852;43.086;25.634;2023-05-01T08:32:08;99136.13;;;17.27;56.30
58668;BME280;59852;43.086;25.634;2023-05-01T08:34:33;99131.81;;;17.35;57.21
58668;BME280;59852;43.086;25.634;2023-05-01T08:37:00;99137.38;;;17.42;56.78
58668;BME280;59852;43.086;25.634;2023-05-01T08:39:26;99133.44;;;17.46;56.73
58668;BME280;59852;43.086;25.634;2023-05-01T08:41:51;99130.41;;;17.41;54.69
58668;BME280;59852;43.086;25.634;2023-05-01T08:44:16;99133.88;;;17.41;55.17
58668;BME280;59852;43.086;25.634;2023-05-01T08:46:45;99131.16;;;17.80;55.51
58668;BME280;59852;43.086;25.634;2023-05-01T08:49:14;99132.00;;;17.71;54.82
58668;BME280;59852;43.086;25.634;2023-05-01T08:51:41;99123.75;;;17.27;52.97
58668;BME280;59852;43.086;25.634;2023-05-01T08:54:06;99123.59;;;17.85;54.42
58668;BME280;59852;43.086;25.634;2023-05-01T08:56:34;99128.66;;;17.59;52.73
58668;BME280;59852;43.086;25.634;2023-05-01T08:59:00;99122.31;;;17.42;53.07
58668;BME280;59852;43.086;25.634;2023-05-01T09:01:28;99124.97;;;17.42;52.48
58668;BME280;59852;43.086;25.634;2023-05-01T09:03:54;99121.66;;;17.77;53.28
58668;BME280;59852;43.086;25.634;2023-05-01T09:06:21;99120.00;;;18.04;52.03
58668;BME280;59852;43.086;25.634;2023-05-01T09:08:46;99118.00;;;17.51;54.32
58668;BME280;59852;43.086;25.634;2023-05-01T09:11:12;99128.97;;;17.46;53.28
58668;BME280;59852;43.086;25.634;2023-05-01T09:13:37;99126.53;;;17.26;52.83
58668;BME280;59852;43.086;25.634;2023-05-01T09:16:03;99120.88;;;17.11;52.90
58668;BME280;59852;43.086;25.634;2023-05-01T09:18:29;99117.63;;;17.83;52.55
58668;BME280;59852;43.086;25.634;2023-05-01T09:20:56;99115.84;;;18.29;50.93
58668;BME280;59852;43.086;25.634;2023-05-01T09:23:21;99119.97;;;18.14;50.49
58668;BME280;59852;43.086;25.634;2023-05-01T09:25:46;99117.75;;;18.54;50.46
58668;BME280;59852;43.086;25.634;2023-05-01T09:28:12;99126.59;;;18.45;49.41
58668;BME280;59852;43.086;25.634;2023-05-01T09:30:37;99113.47;;;18.71;49.57
58668;BME280;59852;43.086;25.634;2023-05-01T09:35:31;99106.97;;;18.38;47.40
58668;BME280;59852;43.086;25.634;2023-05-01T09:37:58;99109.25;;;18.78;47.02
58668;BME280;59852;43.086;25.634;2023-05-01T09:40:26;99113.06;;;18.84;46.37
58668;BME280;59852;43.086;25.634;2023-05-01T09:42:52;99103.50;;;18.20;48.37
58668;BME280;59852;43.086;25.634;2023-05-01T09:45:20;99112.91;;;17.77;46.50
58668;BME280;59852;43.086;25.634;2023-05-01T09:47:47;99108.75;;;18.65;44.99
58668;BME280;59852;43.086;25.634;2023-05-01T09:52:53;99111.31;;;18.57;44.33
58668;BME280;59852;43.086;25.634;2023-05-01T09:55:19;99097.69;;;18.87;43.48
58668;BME280;59852;43.086;25.634;2023-05-01T09:57:45;99108.75;;;19.01;45.04
58668;BME280;59852;43.086;25.634;2023-05-01T10:00:11;99105.38;;;18.27;42.99
58668;BME280;59852;43.086;25.634;2023-05-01T10:02:39;99102.34;;;18.22;46.64
58668;BME280;59852;43.086;25.634;2023-05-01T10:05:05;99096.00;;;19.04;44.21
58668;BME280;59852;43.086;25.634;2023-05-01T10:07:31;99098.56;;;19.14;43.78
58668;BME280;59852;43.086;25.634;2023-05-01T10:09:57;99106.50;;;19.14;43.78
58668;BME280;59852;43.086;25.634;2023-05-01T10:12:23;99107.91;;;19.00;43.68
58668;BME280;59852;43.086;25.634;2023-05-01T10:14:52;99096.91;;;19.13;44.07
58668;BME280;59852;43.086;25.634;2023-05-01T10:17:18;99094.75;;;19.16;45.41
58668;BME280;59852;43.086;25.634;2023-05-01T10:19:46;99094.06;;;18.53;45.71
58668;BME280;59852;43.086;25.634;2023-05-01T10:22:12;99096.78;;;18.43;46.61
58668;BME280;59852;43.086;25.634;2023-05-01T10:24:38;99099.56;;;19.13;45.95
58668;BME280;59852;43.086;25.634;2023-05-01T10:27:07;99095.06;;;18.70;45.02
58668;BME280;59852;43.086;25.634;2023-05-01T10:29:33;99094.91;;;18.71;42.61
58668;BME280;59852;43.086;25.634;2023-05-01T10:32:01;99100.28;;;19.23;45.32
58668;BME280;59852;43.086;25.634;2023-05-01T10:34:27;99095.91;;;19.40;42.79
58668;BME280;59852;43.086;25.634;2023-05-01T10:36:56;99092.50;;;19.47;44.27
58668;BME280;59852;43.086;25.634;2023-05-01T10:39:32;99100.34;;;18.87;43.97
58668;BME280;59852;43.086;25.634;2023-05-01T10:44:30;99095.59;;;19.17;43.88
58668;BME280;59852;43.086;25.634;2023-05-01T10:46:55;99094.94;;;19.41;43.82
58668;BME280;59852;43.086;25.634;2023-05-01T10:49:21;99100.41;;;18.96;45.34
58668;BME280;59852;43.086;25.634;2023-05-01T10:54:31;99096.75;;;18.71;45.35
58668;BME280;59852;43.086;25.634;2023-05-01T10:57:00;99089.47;;;18.73;44.43
58668;BME280;59852;43.086;25.634;2023-05-01T11:02:31;99091.06;;;19.87;43.46
58668;BME280;59852;43.086;25.634;2023-05-01T11:04:55;99091.13;;;19.69;41.80
58668;BME280;59852;43.086;25.634;2023-05-01T11:07:21;99091.34;;;19.84;40.60
58668;BME280;59852;43.086;25.634;2023-05-01T11:09:53;99093.50;;;19.81;40.22
58668;BME280;59852;43.086;25.634;2023-05-01T11:15:03;99095.56;;;19.61;37.63
58668;BME280;59852;43.086;25.634;2023-05-01T11:18:02;99095.56;;;19.61;39.29
58668;BME280;59852;43.086;25.634;2023-05-01T11:22:53;99097.63;;;20.25;38.75
58668;BME280;59852;43.086;25.634;2023-05-01T11:25:29;99093.84;;;19.77;39.17
58668;BME280;59852;43.086;25.634;2023-05-01T11:27:58;99096.63;;;19.76;39.32
58668;BME280;59852;43.086;25.634;2023-05-01T11:30:25;99077.09;;;20.36;39.06
58668;BME280;59852;43.086;25.634;2023-05-01T11:32:50;99090.69;;;20.41;39.18
58668;BME280;59852;43.086;25.634;2023-05-01T11:37:42;99070.97;;;20.92;39.05
58668;BME280;59852;43.086;25.634;2023-05-01T11:40:21;99079.63;;;20.61;39.81
58668;BME280;59852;43.086;25.634;2023-05-01T11:42:47;99074.47;;;20.52;38.19
58668;BME280;59852;43.086;25.634;2023-05-01T11:45:13;99076.28;;;20.43;37.96
58668;BME280;59852;43.086;25.634;2023-05-01T11:47:38;99076.28;;;20.51;38.12
58668;BME280;59852;43.086;25.634;2023-05-01T11:50:05;99081.66;;;20.09;37.73
58668;BME280;59852;43.086;25.634;2023-05-01T11:52:39;99064.84;;;19.92;37.99
58668;BME280;59852;43.086;25.634;2023-05-01T11:55:05;99074.59;;;20.42;38.75
58668;BME280;59852;43.086;25.634;2023-05-01T11:57:43;99069.72;;;20.21;36.14
58668;BME280;59852;43.086;25.634;2023-05-01T12:00:08;99065.34;;;20.46;36.27
58668;BME280;59852;43.086;25.634;2023-05-01T12:02:34;99059.38;;;20.77;35.79
58668;BME280;59852;43.086;25.634;2023-05-01T12:05:12;99060.63;;;20.40;34.60
58668;BME280;59852;43.086;25.634;2023-05-01T12:07:38;99050.22;;;20.55;35.08
58668;BME280;59852;43.086;25.634;2023-05-01T12:10:03;99052.03;;;20.62;34.82
58668;BME280;59852;43.086;25.634;2023-05-01T12:12:29;99048.09;;;20.75;36.88
58668;BME280;59852;43.086;25.634;2023-05-01T12:14:54;99047.22;;;20.90;34.40
58668;BME280;59852;43.086;25.634;2023-05-01T12:17:20;99053.19;;;20.44;35.78
58668;BME280;59852;43.086;25.634;2023-05-01T12:19:48;99048.91;;;20.67;35.19
58668;BME280;59852;43.086;25.634;2023-05-01T12:22:13;99057.38;;;20.87;35.11
58668;BME280;59852;43.086;25.634;2023-05-01T12:24:47;99059.00;;;21.29;35.49
58668;BME280;59852;43.086;25.634;2023-05-01T12:27:13;99046.72;;;20.54;33.38
58668;BME280;59852;43.086;25.634;2023-05-01T12:29:39;99043.97;;;20.14;34.75
58668;BME280;59852;43.086;25.634;2023-05-01T12:32:05;99041.38;;;20.30;35.34
58668;BME280;59852;43.086;25.634;2023-05-01T12:34:31;99038.72;;;20.30;35.26
58668;BME280;59852;43.086;25.634;2023-05-01T12:36:57;99045.94;;;19.95;37.20
58668;BME280;59852;43.086;25.634;2023-05-01T12:39:23;99035.59;;;20.51;35.68
58668;BME280;59852;43.086;25.634;2023-05-01T12:41:49;99035.59;;;20.51;35.83
58668;BME280;59852;43.086;25.634;2023-05-01T12:46:40;99038.22;;;20.26;34.71
58668;BME280;59852;43.086;25.634;2023-05-01T12:49:06;99042.41;;;20.53;33.64
58668;BME280;59852;43.086;25.634;2023-05-01T12:51:31;99049.38;;;20.71;33.54
58668;BME280;59852;43.086;25.634;2023-05-01T12:53:57;99043.59;;;20.75;34.69
58668;BME280;59852;43.086;25.634;2023-05-01T12:56:23;99041.72;;;20.84;34.15
58668;BME280;59852;43.086;25.634;2023-05-01T12:58:49;99034.44;;;20.53;32.94
58668;BME280;59852;43.086;25.634;2023-05-01T13:01:25;99036.94;;;20.71;34.11
58668;BME280;59852;43.086;25.634;2023-05-01T13:03:51;99040.59;;;20.86;35.46
58668;BME280;59852;43.086;25.634;2023-05-01T13:06:16;99033.56;;;21.02;34.32
58668;BME280;59852;43.086;25.634;2023-05-01T13:08:42;99036.03;;;20.22;34.34
58668;BME280;59852;43.086;25.634;2023-05-01T13:11:15;99039.75;;;19.79;35.39
58668;BME280;59852;43.086;25.634;2023-05-01T13:13:42;99037.53;;;20.24;35.10
58668;BME280;59852;43.086;25.634;2023-05-01T13:16:12;99037.59;;;20.49;35.18
58668;BME280;59852;43.086;25.634;2023-05-01T13:18:49;99043.41;;;20.69;34.25
58668;BME280;59852;43.086;25.634;2023-05-01T13:21:17;99036.09;;;20.79;33.84
58668;BME280;59852;43.086;25.634;2023-05-01T13:23:52;99036.59;;;20.90;34.56
58668;BME280;59852;43.086;25.634;2023-05-01T13:26:23;99033.09;;;20.82;33.85
58668;BME280;59852;43.086;25.634;2023-05-01T13:28:48;99039.75;;;20.61;34.38